createdAt,value
2022-12-03T00:01:13.906Z,26.98
2022-12-03T00:03:40.418Z,29.20
2022-12-03T00:06:07.117Z,24.00
2022-12-03T00:08:33.485Z,25.40
2022-12-03T00:10:59.831Z,25.75
2022-12-03T00:13:26.276Z,27.35
2022-12-03T00:15:52.661Z,30.33
2022-12-03T00:18:19.074Z,24.80
2022-12-03T00:20:45.414Z,25.52
2022-12-03T00:23:11.754Z,27.15
2022-12-03T00:25:38.090Z,25.00
2022-12-03T00:28:04.632Z,25.52
2022-12-03T00:30:30.967Z,23.95
2022-12-03T00:32:57.763Z,26.10
2022-12-03T00:35:24.122Z,27.10
2022-12-03T00:37:50.588Z,29.60
2022-12-03T00:40:17.001Z,23.90
2022-12-03T00:42:43.347Z,25.00
2022-12-03T00:45:10.074Z,27.90
2022-12-03T00:47:36.479Z,24.42
2022-12-03T00:50:02.821Z,25.17
2022-12-03T00:52:29.197Z,25.95
2022-12-03T00:54:55.789Z,31.85
2022-12-03T00:57:22.448Z,31.48
2022-12-03T00:59:48.792Z,32.20
2022-12-03T01:02:15.182Z,34.60
2022-12-03T01:04:41.748Z,37.50
2022-12-03T01:07:08.181Z,35.83
2022-12-03T01:09:34.646Z,28.48
2022-12-03T01:12:01.007Z,35.35
2022-12-03T01:14:27.503Z,36.85
2022-12-03T01:16:53.903Z,33.40
2022-12-03T01:19:20.570Z,37.22
2022-12-03T01:21:49.125Z,31.70
2022-12-03T01:24:16.221Z,29.42
2022-12-03T01:26:42.587Z,31.65
2022-12-03T01:29:08.999Z,32.35
2022-12-03T01:31:54.025Z,26.00
2022-12-03T01:34:20.829Z,32.67
2022-12-03T01:36:47.254Z,33.28
2022-12-03T01:39:13.683Z,30.63
2022-12-03T01:41:40.770Z,29.67
2022-12-03T01:44:16.755Z,32.60
2022-12-03T01:46:43.527Z,36.65
2022-12-03T01:49:40.966Z,32.83
2022-12-03T01:52:12.273Z,34.33
2022-12-03T01:57:18.171Z,34.22
2022-12-03T01:59:44.894Z,36.40
2022-12-03T02:02:13.854Z,40.20
2022-12-03T02:04:40.654Z,30.98
2022-12-03T02:07:21.326Z,26.33
2022-12-03T02:09:47.677Z,35.75
2022-12-03T02:12:16.944Z,33.20
2022-12-03T02:14:44.040Z,33.63
2022-12-03T02:17:11.410Z,41.10
2022-12-03T02:19:37.943Z,30.17
2022-12-03T02:22:32.826Z,37.28
2022-12-03T02:24:59.298Z,32.28
2022-12-03T02:27:28.075Z,29.70
2022-12-03T02:29:54.613Z,35.85
2022-12-03T02:32:23.334Z,34.70
2022-12-03T02:34:50.310Z,38.47
2022-12-03T02:37:26.885Z,39.53
2022-12-03T02:40:01.624Z,38.53
2022-12-03T02:42:35.278Z,32.05
2022-12-03T02:45:10.457Z,35.47
2022-12-03T02:47:43.146Z,39.50
2022-12-03T02:50:12.256Z,36.17
2022-12-03T02:52:39.605Z,36.40
2022-12-03T02:55:07.238Z,36.92
2022-12-03T02:57:35.934Z,34.63
2022-12-03T03:00:02.410Z,39.90
2022-12-03T03:02:28.947Z,42.13
2022-12-03T03:04:56.850Z,36.45
2022-12-03T03:07:23.325Z,38.70
2022-12-03T03:09:49.869Z,40.20
2022-12-03T03:12:16.551Z,30.95
2022-12-03T03:14:42.992Z,32.53
2022-12-03T03:17:09.437Z,32.85
2022-12-03T03:19:35.957Z,35.40
2022-12-03T03:22:02.346Z,35.47
2022-12-03T03:24:28.706Z,30.20
2022-12-03T03:26:55.249Z,39.92
2022-12-03T03:29:21.932Z,32.97
2022-12-03T03:31:48.829Z,34.22
2022-12-03T03:34:16.337Z,35.28
2022-12-03T03:36:43.495Z,38.20
2022-12-03T03:39:09.947Z,33.00
2022-12-03T03:41:36.879Z,26.88
2022-12-03T03:44:06.087Z,33.47
2022-12-03T03:46:33.573Z,35.20
2022-12-03T03:49:00.487Z,30.23
2022-12-03T03:51:27.125Z,34.08
2022-12-03T03:53:54.066Z,36.28
2022-12-03T03:56:21.465Z,36.10
2022-12-03T03:58:47.845Z,30.00
2022-12-03T04:01:15.377Z,30.00
2022-12-03T04:03:41.910Z,34.08
2022-12-03T04:06:08.764Z,30.38
2022-12-03T04:08:35.271Z,27.75
2022-12-03T04:11:20.253Z,35.58
2022-12-03T04:13:46.758Z,29.17
2022-12-03T04:16:13.146Z,27.63
2022-12-03T04:18:42.729Z,35.15
2022-12-03T04:21:36.502Z,34.92
2022-12-03T04:24:04.119Z,34.30
2022-12-03T04:26:49.763Z,29.70
2022-12-03T04:29:16.234Z,33.75
2022-12-03T04:32:01.152Z,34.22
2022-12-03T04:34:46.015Z,28.95
2022-12-03T04:37:12.392Z,30.50
2022-12-03T04:39:38.758Z,30.95
2022-12-03T04:42:06.167Z,32.10
2022-12-03T04:44:33.320Z,33.97
2022-12-03T04:47:11.791Z,29.73
2022-12-03T04:49:41.347Z,31.05
2022-12-03T04:52:08.146Z,31.10
2022-12-03T04:54:35.155Z,33.78
2022-12-03T04:57:01.685Z,30.08
2022-12-03T04:59:28.641Z,24.92
2022-12-03T05:01:55.096Z,30.58
2022-12-03T05:04:21.561Z,31.23
2022-12-03T05:06:47.992Z,26.77
2022-12-03T05:09:14.460Z,33.40
2022-12-03T05:11:41.458Z,30.33
2022-12-03T05:14:08.251Z,27.45
2022-12-03T05:16:34.870Z,29.40
2022-12-03T05:19:01.981Z,26.35
2022-12-03T05:21:28.369Z,26.92
2022-12-03T05:23:54.758Z,24.48
2022-12-03T05:26:21.404Z,25.33
2022-12-03T05:28:47.738Z,27.17
2022-12-03T05:31:14.211Z,26.80
2022-12-03T05:33:44.143Z,30.00
2022-12-03T05:36:11.223Z,27.95
2022-12-03T05:38:37.628Z,28.60
2022-12-03T05:41:24.284Z,28.15
2022-12-03T05:43:50.775Z,28.60
2022-12-03T05:46:17.409Z,27.17
2022-12-03T05:48:44.141Z,28.30
2022-12-03T05:51:10.460Z,31.08
2022-12-03T05:53:36.815Z,29.33
2022-12-03T05:56:03.216Z,24.92
2022-12-03T05:58:29.623Z,27.83
2022-12-03T06:00:56.007Z,28.95
2022-12-03T06:03:22.427Z,24.77
2022-12-03T06:05:48.842Z,27.25
2022-12-03T06:08:15.263Z,28.45
2022-12-03T06:10:41.619Z,26.33
2022-12-03T06:13:07.981Z,29.40
2022-12-03T06:15:38.771Z,27.40
2022-12-03T06:18:08.478Z,25.92
2022-12-03T06:20:34.841Z,26.98
2022-12-03T06:23:01.154Z,29.83
2022-12-03T06:25:27.500Z,32.95
2022-12-03T06:27:53.858Z,25.20
2022-12-03T06:30:20.200Z,29.08
2022-12-03T06:32:46.559Z,22.42
2022-12-03T06:35:13.020Z,31.30
2022-12-03T06:37:39.356Z,26.33
2022-12-03T06:40:06.634Z,28.25
2022-12-03T06:42:33.008Z,24.95
2022-12-03T06:44:59.390Z,24.67
2022-12-03T06:47:25.705Z,29.13
2022-12-03T06:49:52.065Z,25.83
2022-12-03T06:52:18.423Z,32.10
2022-12-03T06:54:44.754Z,29.65
2022-12-03T06:57:11.295Z,25.17
2022-12-03T06:59:37.930Z,22.92
2022-12-03T07:02:04.888Z,24.90
2022-12-03T07:04:31.357Z,24.40
2022-12-03T07:06:57.818Z,26.48
2022-12-03T07:09:24.271Z,24.50
2022-12-03T07:11:50.613Z,22.85
2022-12-03T07:14:16.997Z,22.77
2022-12-03T07:16:43.977Z,22.52
2022-12-03T07:19:10.836Z,25.90
2022-12-03T07:21:37.420Z,27.30
2022-12-03T07:24:04.000Z,28.20
2022-12-03T07:26:30.330Z,26.20
2022-12-03T07:28:57.099Z,23.38
2022-12-03T07:31:23.599Z,26.25
2022-12-03T07:33:50.216Z,24.17
2022-12-03T07:36:16.674Z,21.52
2022-12-03T07:38:43.066Z,24.95
2022-12-03T07:41:09.475Z,27.13
2022-12-03T07:43:35.817Z,24.10
2022-12-03T07:46:02.149Z,24.83
2022-12-03T07:48:28.538Z,24.10
2022-12-03T07:50:54.979Z,25.42
2022-12-03T07:53:21.652Z,22.52
2022-12-03T07:55:47.998Z,22.90
2022-12-03T07:58:14.441Z,23.00
2022-12-03T08:00:40.859Z,19.35
2022-12-03T08:03:07.235Z,24.38
2022-12-03T08:05:33.673Z,18.17
2022-12-03T08:08:01.074Z,26.40
2022-12-03T08:10:27.618Z,24.17
2022-12-03T08:12:56.204Z,20.42
2022-12-03T08:15:24.228Z,24.67
2022-12-03T08:17:56.298Z,24.13
2022-12-03T08:20:26.269Z,23.45
2022-12-03T08:22:54.583Z,22.67
2022-12-03T08:25:26.774Z,22.98
2022-12-03T08:28:07.692Z,23.30
2022-12-03T08:30:34.122Z,20.73
2022-12-03T08:33:00.582Z,24.40
2022-12-03T08:35:30.490Z,26.63
2022-12-03T08:38:09.321Z,27.42
2022-12-03T08:40:39.489Z,27.48
2022-12-03T08:43:20.942Z,25.67
2022-12-03T08:45:49.699Z,24.50
2022-12-03T08:48:19.126Z,22.00
2022-12-03T08:50:45.994Z,21.85
2022-12-03T08:53:21.378Z,20.77
2022-12-03T08:55:52.814Z,18.90
2022-12-03T09:00:58.024Z,24.67
2022-12-03T09:03:24.688Z,19.45
2022-12-03T09:05:51.073Z,20.23
2022-12-03T09:08:17.471Z,21.00
2022-12-03T09:10:43.989Z,22.35
2022-12-03T09:13:10.327Z,21.77
2022-12-03T09:15:36.689Z,20.60
2022-12-03T09:18:03.073Z,19.58
2022-12-03T09:20:29.439Z,16.67
2022-12-03T09:22:55.879Z,21.52
2022-12-03T09:25:22.252Z,21.83
2022-12-03T09:27:48.862Z,17.50
2022-12-03T09:30:15.642Z,17.83
2022-12-03T09:32:42.043Z,18.88
2022-12-03T09:35:08.555Z,16.83
2022-12-03T09:37:34.897Z,17.58
2022-12-03T09:40:01.387Z,16.63
2022-12-03T09:42:28.059Z,20.25
2022-12-03T09:44:54.822Z,21.30
2022-12-03T09:47:21.506Z,20.90
2022-12-03T09:49:48.008Z,18.83
2022-12-03T09:52:23.662Z,18.23
2022-12-03T09:54:51.354Z,19.83
2022-12-03T09:57:18.530Z,16.10
2022-12-03T09:59:45.375Z,16.15
2022-12-03T10:02:29.946Z,17.73
2022-12-03T10:04:58.176Z,16.50
2022-12-03T10:07:25.427Z,15.80
2022-12-03T10:09:52.148Z,17.17
2022-12-03T10:12:23.493Z,17.00
2022-12-03T10:14:50.027Z,19.05
2022-12-03T10:17:16.922Z,18.58
2022-12-03T10:19:44.578Z,17.60
2022-12-03T10:22:10.906Z,16.33
2022-12-03T10:24:37.925Z,19.13
2022-12-03T10:27:21.265Z,19.27
2022-12-03T10:30:01.301Z,19.38
2022-12-03T10:32:41.151Z,15.82
2022-12-03T10:35:26.114Z,19.00
2022-12-03T10:38:04.339Z,14.85
2022-12-03T10:40:35.249Z,19.40
2022-12-03T10:43:14.914Z,17.50
2022-12-03T10:45:42.657Z,19.70
2022-12-03T10:48:27.343Z,18.50
2022-12-03T10:51:03.235Z,17.13
2022-12-03T10:53:35.668Z,16.10
2022-12-03T10:56:05.642Z,16.92
2022-12-03T10:58:35.955Z,16.25
2022-12-03T11:01:06.683Z,18.42
2022-12-03T11:03:36.737Z,21.15
2022-12-03T11:06:03.702Z,21.17
2022-12-03T11:08:37.218Z,18.08
2022-12-03T11:11:06.778Z,20.33
2022-12-03T11:13:33.075Z,20.13
2022-12-03T11:16:05.457Z,19.73
2022-12-03T11:18:37.902Z,22.38
2022-12-03T11:21:13.369Z,18.95
2022-12-03T11:24:00.297Z,19.45
2022-12-03T11:26:26.587Z,18.42
2022-12-03T11:28:54.788Z,20.23
2022-12-03T11:31:39.818Z,23.98
2022-12-03T11:34:18.217Z,18.00
2022-12-03T11:37:09.342Z,24.08
2022-12-03T11:39:45.095Z,19.83
2022-12-03T11:42:38.977Z,16.73
2022-12-03T11:45:05.422Z,19.13
2022-12-03T11:47:41.841Z,20.77
2022-12-03T11:50:39.586Z,15.98
2022-12-03T11:53:22.247Z,21.45
2022-12-03T11:56:06.199Z,16.50
2022-12-03T11:58:34.185Z,18.52
2022-12-03T12:01:02.813Z,19.58
2022-12-03T12:03:33.476Z,18.50
2022-12-03T12:06:03.393Z,18.40
2022-12-03T12:08:30.522Z,19.90
2022-12-03T12:10:57.530Z,17.00
2022-12-03T12:13:33.831Z,18.38
2022-12-03T12:16:05.866Z,14.55
2022-12-03T12:18:39.867Z,18.30
2022-12-03T12:21:47.489Z,18.23
2022-12-03T12:24:33.316Z,20.55
2022-12-03T12:27:03.137Z,19.58
2022-12-03T12:29:29.663Z,15.70
2022-12-03T12:32:09.239Z,16.70
2022-12-03T12:34:40.569Z,14.25
2022-12-03T12:37:11.819Z,15.80
2022-12-03T12:39:38.872Z,16.25
2022-12-03T12:42:35.614Z,17.73
2022-12-03T12:45:07.826Z,19.90
2022-12-03T12:47:35.501Z,21.73
2022-12-03T12:50:08.376Z,21.42
2022-12-03T12:52:34.727Z,55.17
2022-12-03T12:55:04.922Z,36.45
2022-12-03T12:57:33.785Z,13.95
2022-12-03T13:00:00.226Z,25.45
2022-12-03T13:02:26.583Z,34.97
2022-12-03T13:04:53.003Z,31.48
2022-12-03T13:07:19.358Z,18.52
2022-12-03T13:09:45.757Z,17.48
2022-12-03T13:12:21.451Z,14.05
2022-12-03T13:14:48.127Z,19.05
2022-12-03T13:17:19.005Z,16.95
2022-12-03T13:20:00.537Z,16.50
2022-12-03T13:22:31.783Z,15.20
2022-12-03T13:25:03.356Z,14.02
2022-12-03T13:27:30.257Z,13.70
2022-12-03T13:30:00.713Z,16.50
2022-12-03T13:32:31.247Z,26.60
2022-12-03T13:35:13.718Z,29.88
2022-12-03T13:37:40.160Z,14.02
2022-12-03T13:40:18.222Z,17.55
2022-12-03T13:42:46.452Z,14.45
2022-12-03T13:45:19.012Z,16.15
2022-12-03T13:47:48.736Z,20.55
2022-12-03T13:50:36.467Z,25.00
2022-12-03T13:53:40.039Z,19.50
2022-12-03T13:56:29.107Z,24.85
2022-12-03T13:58:57.376Z,31.10
2022-12-03T14:01:24.020Z,19.25
2022-12-03T14:03:50.637Z,18.02
2022-12-03T14:06:17.341Z,34.88
2022-12-03T14:08:43.823Z,22.52
2022-12-03T14:11:30.242Z,21.17
2022-12-03T14:13:56.730Z,16.23
2022-12-03T14:16:23.212Z,18.40
2022-12-03T14:18:49.662Z,37.63
2022-12-03T14:21:16.082Z,67.05
2022-12-03T14:23:42.475Z,73.03
2022-12-03T14:26:08.898Z,64.97
2022-12-03T14:28:35.345Z,22.35
2022-12-03T14:31:01.798Z,33.33
2022-12-03T14:33:28.213Z,49.78
2022-12-03T14:35:55.980Z,30.63
2022-12-03T14:38:22.489Z,35.75
2022-12-03T14:40:48.867Z,23.42
2022-12-03T14:43:15.311Z,46.70
2022-12-03T14:45:41.884Z,121.45
2022-12-03T14:48:08.388Z,27.33
2022-12-03T14:50:34.849Z,46.47
2022-12-03T14:53:01.249Z,67.80
2022-12-03T14:55:27.769Z,46.13
2022-12-03T14:57:54.107Z,27.20
2022-12-03T15:00:21.002Z,22.83
2022-12-03T15:02:47.490Z,22.23
2022-12-03T15:05:14.048Z,14.73
2022-12-03T15:07:40.439Z,18.55
2022-12-03T15:10:07.840Z,16.13
2022-12-03T15:12:34.317Z,18.75
2022-12-03T15:15:00.722Z,15.82
2022-12-03T15:17:31.723Z,16.92
2022-12-03T15:22:24.911Z,14.23
2022-12-03T15:24:51.324Z,16.77
2022-12-03T15:27:20.659Z,11.50
2022-12-03T15:29:47.051Z,14.70
2022-12-03T15:32:13.508Z,18.02
2022-12-03T15:34:39.948Z,17.67
2022-12-03T15:37:06.387Z,20.00
2022-12-03T15:39:33.261Z,17.40
2022-12-03T15:41:59.659Z,19.77
2022-12-03T15:44:26.010Z,17.35
2022-12-03T15:46:52.362Z,16.35
2022-12-03T15:49:19.915Z,22.27
2022-12-03T15:51:46.365Z,59.28
2022-12-03T15:54:12.846Z,27.08
2022-12-03T15:56:39.391Z,18.85
2022-12-03T15:59:05.785Z,19.80
2022-12-03T16:01:32.313Z,19.67
2022-12-03T16:03:58.867Z,17.65
2022-12-03T16:06:26.340Z,15.57
2022-12-03T16:08:52.872Z,17.70
2022-12-03T16:11:19.310Z,15.75
2022-12-03T16:13:45.694Z,19.80
2022-12-03T16:16:12.098Z,15.48
2022-12-03T16:18:38.582Z,16.27
2022-12-03T16:21:04.964Z,15.15
2022-12-03T16:23:31.314Z,18.85
2022-12-03T16:25:57.667Z,18.20
2022-12-03T16:28:24.191Z,17.77
2022-12-03T16:30:50.727Z,18.13
2022-12-03T16:33:20.088Z,15.52
2022-12-03T16:35:49.097Z,15.70
2022-12-03T16:38:15.515Z,17.77
2022-12-03T16:40:42.020Z,16.60
2022-12-03T16:43:10.493Z,17.42
2022-12-03T16:45:42.796Z,18.50
2022-12-03T16:48:09.171Z,18.95
2022-12-03T16:50:37.505Z,15.00
2022-12-03T16:53:03.932Z,15.18
2022-12-03T16:55:31.491Z,20.95
2022-12-03T16:57:57.862Z,19.95
2022-12-03T17:00:26.216Z,15.55
2022-12-03T17:02:52.719Z,19.80
2022-12-03T17:05:19.398Z,17.25
2022-12-03T17:07:45.816Z,27.05
2022-12-03T17:10:12.341Z,24.65
2022-12-03T17:13:07.798Z,20.42
2022-12-03T17:15:25.123Z,21.17
2022-12-03T17:17:51.558Z,18.20
2022-12-03T17:20:18.519Z,18.50
2022-12-03T17:22:44.954Z,19.70
2022-12-03T17:25:11.521Z,17.95
2022-12-03T17:27:44.645Z,20.65
2022-12-03T17:30:12.559Z,19.95
2022-12-03T17:32:39.007Z,19.42
2022-12-03T17:35:05.838Z,18.65
2022-12-03T17:37:32.396Z,24.70
2022-12-03T17:39:58.869Z,22.05
2022-12-03T17:42:25.322Z,18.25
2022-12-03T17:44:51.708Z,21.27
2022-12-03T17:47:18.202Z,22.55
2022-12-03T17:49:44.579Z,18.02
2022-12-03T17:52:10.919Z,19.98
2022-12-03T17:55:01.846Z,18.58
2022-12-03T17:57:23.751Z,18.13
2022-12-03T17:59:50.196Z,21.95
2022-12-03T18:02:16.906Z,14.80
2022-12-03T18:04:43.472Z,19.30
2022-12-03T18:07:09.885Z,17.80
2022-12-03T18:09:36.303Z,20.38
2022-12-03T18:12:02.662Z,21.42
2022-12-03T18:14:29.025Z,17.17
2022-12-03T18:16:55.985Z,18.85
2022-12-03T18:19:22.430Z,18.52
2022-12-03T18:21:48.865Z,18.80
2022-12-03T18:24:15.274Z,21.85
2022-12-03T18:26:42.602Z,18.70
2022-12-03T18:29:09.062Z,19.25
2022-12-03T18:31:35.495Z,17.67
2022-12-03T18:34:01.991Z,16.33
2022-12-03T18:36:33.332Z,18.95
2022-12-03T18:39:01.022Z,17.00
2022-12-03T18:41:27.710Z,17.67
2022-12-03T18:43:54.528Z,20.13
2022-12-03T18:49:09.695Z,22.38
2022-12-03T18:51:36.590Z,24.58
2022-12-03T18:54:03.176Z,26.55
2022-12-03T18:56:29.617Z,26.52
2022-12-03T18:58:55.999Z,20.50
2022-12-03T19:01:23.050Z,20.55
2022-12-03T19:03:49.933Z,24.05
2022-12-03T19:06:20.493Z,26.92
2022-12-03T19:08:49.390Z,37.95
2022-12-03T19:11:15.835Z,33.45
2022-12-03T19:13:42.264Z,53.88
2022-12-03T19:16:10.065Z,25.13
2022-12-03T19:18:36.477Z,22.63
2022-12-03T19:21:08.009Z,17.73
2022-12-03T19:23:35.948Z,16.38
2022-12-03T19:26:04.078Z,17.77
2022-12-03T19:28:30.752Z,21.80
2022-12-03T19:31:03.221Z,30.17
2022-12-03T19:33:30.224Z,20.55
2022-12-03T19:35:58.025Z,19.67
2022-12-03T19:38:27.032Z,28.65
2022-12-03T19:41:02.744Z,25.77
2022-12-03T19:43:31.765Z,20.75
2022-12-03T19:46:03.504Z,32.70
2022-12-03T19:48:31.182Z,30.17
2022-12-03T19:51:19.781Z,22.52
2022-12-03T19:53:45.987Z,20.38
2022-12-03T19:56:15.126Z,26.13
2022-12-03T19:58:44.941Z,19.05
2022-12-03T20:01:14.974Z,21.80
2022-12-03T20:03:46.787Z,29.92
2022-12-03T20:06:14.167Z,20.13
2022-12-03T20:08:40.589Z,22.88
2022-12-03T20:11:22.270Z,17.55
2022-12-03T20:13:52.969Z,19.40
2022-12-03T20:16:19.572Z,24.08
2022-12-03T20:18:48.469Z,20.58
2022-12-03T20:21:16.962Z,23.70
2022-12-03T20:23:45.364Z,21.45
2022-12-03T20:26:14.902Z,18.02
2022-12-03T20:28:41.800Z,19.27
2022-12-03T20:31:13.249Z,27.98
2022-12-03T20:33:42.256Z,36.65
2022-12-03T20:36:10.228Z,35.25
2022-12-03T20:38:37.166Z,34.28
2022-12-03T20:41:05.689Z,29.67
2022-12-03T20:43:32.782Z,35.95
2022-12-03T20:46:17.178Z,18.77
2022-12-03T20:48:44.618Z,43.83
2022-12-03T20:51:13.663Z,42.97
2022-12-03T20:53:40.401Z,39.33
2022-12-03T20:56:07.412Z,30.52
2022-12-03T20:58:34.518Z,30.52
2022-12-03T21:01:18.363Z,23.20
2022-12-03T21:03:46.191Z,34.67
2022-12-03T21:06:13.941Z,33.03
2022-12-03T21:08:42.412Z,25.95
2022-12-03T21:11:11.228Z,19.20
2022-12-03T21:13:41.071Z,15.40
2022-12-03T21:16:10.174Z,32.08
2022-12-03T21:18:37.405Z,39.40
2022-12-03T21:21:06.497Z,32.17
2022-12-03T21:23:33.989Z,29.95
2022-12-03T21:26:20.766Z,26.30
2022-12-03T21:28:49.598Z,33.42
2022-12-03T21:31:19.174Z,25.58
2022-12-03T21:33:45.930Z,21.42
2022-12-03T21:36:14.102Z,16.08
2022-12-03T21:38:41.258Z,21.10
2022-12-03T21:41:08.402Z,16.13
2022-12-03T21:43:34.872Z,18.85
2022-12-03T21:47:10.409Z,17.83
2022-12-03T21:48:52.123Z,19.10
2022-12-03T21:51:19.236Z,16.55
2022-12-03T21:53:46.085Z,19.05
2022-12-03T21:56:17.641Z,16.55
2022-12-03T21:58:45.010Z,16.60
2022-12-03T22:01:23.045Z,16.90
2022-12-03T22:03:50.035Z,17.88
2022-12-03T22:06:17.112Z,15.60
2022-12-03T22:08:43.966Z,18.77
2022-12-03T22:11:17.252Z,19.85
2022-12-03T22:13:44.459Z,16.65
2022-12-03T22:16:14.396Z,18.73
2022-12-03T22:18:40.887Z,19.25
2022-12-03T22:21:13.146Z,18.30
2022-12-03T22:23:40.442Z,18.20
2022-12-03T22:26:09.300Z,16.73
2022-12-03T22:28:35.806Z,19.60
2022-12-03T22:31:09.387Z,18.25
2022-12-03T22:33:36.296Z,16.60
2022-12-03T22:36:05.605Z,19.58
2022-12-03T22:38:32.459Z,17.17
2022-12-03T22:40:59.202Z,19.25
2022-12-03T22:43:26.458Z,19.80
2022-12-03T22:45:54.836Z,19.63
2022-12-03T22:48:22.301Z,17.77
2022-12-03T22:50:50.021Z,16.30
2022-12-03T22:53:16.718Z,21.70
2022-12-03T22:55:43.628Z,19.58
2022-12-03T22:58:11.317Z,22.60
2022-12-03T23:00:40.957Z,28.02
2022-12-03T23:03:08.079Z,23.60
2022-12-03T23:05:36.939Z,23.25
2022-12-03T23:08:05.619Z,26.45
2022-12-03T23:10:36.456Z,44.97
2022-12-03T23:13:03.314Z,25.00
2022-12-03T23:15:30.108Z,24.73
2022-12-03T23:17:56.878Z,22.73
2022-12-03T23:20:23.741Z,19.10
2022-12-03T23:22:50.473Z,29.55
2022-12-03T23:25:17.424Z,20.35
2022-12-03T23:27:44.272Z,25.10
2022-12-03T23:30:12.170Z,14.65
2022-12-03T23:32:38.480Z,17.20
2022-12-03T23:35:05.550Z,20.15
2022-12-03T23:37:32.147Z,22.30
2022-12-03T23:39:58.507Z,21.67
2022-12-03T23:42:24.956Z,14.55
2022-12-03T23:44:51.345Z,13.90
2022-12-03T23:47:17.758Z,15.15
2022-12-03T23:49:44.276Z,17.00
2022-12-03T23:52:10.627Z,14.77
2022-12-03T23:54:37.663Z,14.95
2022-12-03T23:57:04.611Z,13.30
2022-12-03T23:59:31.110Z,14.65
